createdAt,value
2023-05-16T00:01:43.244Z,49.09
2023-05-16T00:04:10.566Z,48.61
2023-05-16T00:06:37.847Z,48.94
2023-05-16T00:09:05.125Z,48.98
2023-05-16T00:11:32.397Z,48.73
2023-05-16T00:14:01.341Z,48.56
2023-05-16T00:16:30.057Z,48.85
2023-05-16T00:19:01.172Z,48.85
2023-05-16T00:21:28.668Z,48.69
2023-05-16T00:23:55.899Z,48.54
2023-05-16T00:26:23.145Z,48.77
2023-05-16T00:28:50.303Z,48.61
2023-05-16T00:31:17.578Z,48.71
2023-05-16T00:33:44.807Z,48.50
2023-05-16T00:36:12.198Z,48.25
2023-05-16T00:38:39.403Z,48.18
2023-05-16T00:41:06.661Z,48.48
2023-05-16T00:43:33.925Z,48.46
2023-05-16T00:46:01.188Z,48.42
2023-05-16T00:48:28.497Z,47.93
2023-05-16T00:50:56.116Z,47.89
2023-05-16T00:53:24.611Z,48.28
2023-05-16T00:55:52.336Z,48.26
2023-05-16T00:58:20.189Z,47.83
2023-05-16T01:00:48.738Z,47.97
2023-05-16T01:03:16.510Z,47.95
2023-05-16T01:05:43.907Z,48.03
2023-05-16T01:08:11.191Z,47.74
2023-05-16T01:10:58.337Z,47.95
2023-05-16T01:13:51.156Z,47.77
2023-05-16T01:16:34.194Z,47.97
2023-05-16T01:19:16.435Z,47.50
2023-05-16T01:21:57.687Z,47.68
2023-05-16T01:24:34.868Z,47.73
2023-05-16T01:27:04.237Z,47.78
2023-05-16T01:29:31.973Z,47.47
2023-05-16T01:31:59.455Z,47.83
2023-05-16T01:34:26.919Z,47.45
2023-05-16T01:37:17.498Z,47.55
2023-05-16T01:39:59.938Z,47.31
2023-05-16T01:42:30.121Z,47.67
2023-05-16T01:45:15.680Z,47.58
2023-05-16T01:47:45.410Z,47.24
2023-05-16T01:50:19.898Z,47.43
2023-05-16T01:52:50.743Z,47.30
2023-05-16T01:55:25.172Z,47.32
2023-05-16T01:57:53.242Z,47.28
2023-05-16T02:00:21.347Z,47.45
2023-05-16T02:02:48.554Z,47.27
2023-05-16T02:05:15.860Z,47.42
2023-05-16T02:07:43.335Z,47.24
2023-05-16T02:10:11.123Z,47.29
2023-05-16T02:12:38.347Z,47.16
2023-05-16T02:15:06.086Z,47.35
2023-05-16T02:17:33.408Z,47.06
2023-05-16T02:20:06.640Z,47.06
2023-05-16T02:22:34.432Z,47.07
2023-05-16T02:25:02.143Z,47.23
2023-05-16T02:27:29.571Z,46.88
2023-05-16T02:29:56.807Z,47.33
2023-05-16T02:32:24.101Z,47.12
2023-05-16T02:34:51.281Z,47.23
2023-05-16T02:37:18.502Z,47.07
2023-05-16T02:39:45.995Z,47.00
2023-05-16T02:42:13.262Z,46.91
2023-05-16T02:44:40.490Z,47.03
2023-05-16T02:47:07.706Z,46.90
2023-05-16T02:49:34.902Z,46.84
2023-05-16T02:52:02.105Z,47.13
2023-05-16T02:54:29.304Z,47.02
2023-05-16T02:56:56.756Z,46.73
2023-05-16T02:59:23.915Z,46.72
2023-05-16T03:01:51.608Z,46.81
2023-05-16T03:04:19.058Z,46.71
2023-05-16T03:06:46.729Z,47.04
2023-05-16T03:09:13.980Z,46.77
2023-05-16T03:11:41.451Z,46.61
2023-05-16T03:14:09.358Z,47.02
2023-05-16T03:16:38.716Z,46.98
2023-05-16T03:19:06.356Z,47.01
2023-05-16T03:21:33.716Z,46.72
2023-05-16T03:24:02.665Z,46.95
2023-05-16T03:26:29.806Z,46.63
2023-05-16T03:28:57.024Z,46.92
2023-05-16T03:31:24.337Z,46.76
2023-05-16T03:33:51.557Z,46.64
2023-05-16T03:36:20.877Z,47.00
2023-05-16T03:38:48.068Z,47.06
2023-05-16T03:41:15.342Z,46.90
2023-05-16T03:43:42.623Z,46.90
2023-05-16T03:46:10.140Z,46.62
2023-05-16T03:48:37.509Z,46.78
2023-05-16T03:51:04.731Z,46.68
2023-05-16T03:53:31.958Z,46.86
2023-05-16T03:55:59.707Z,46.49
2023-05-16T03:58:27.008Z,46.70
2023-05-16T04:00:54.149Z,46.60
2023-05-16T04:03:28.131Z,46.57
2023-05-16T04:05:56.481Z,46.62
2023-05-16T04:08:23.807Z,46.77
2023-05-16T04:10:51.248Z,46.58
2023-05-16T04:13:18.580Z,46.50
2023-05-16T04:15:46.040Z,46.45
2023-05-16T04:18:14.069Z,46.73
2023-05-16T04:20:43.245Z,46.41
2023-05-16T04:23:13.335Z,46.75
2023-05-16T04:25:40.515Z,46.56
2023-05-16T04:28:07.752Z,46.56
2023-05-16T04:30:35.183Z,47.01
2023-05-16T04:33:02.853Z,46.53
2023-05-16T04:35:30.230Z,46.53
2023-05-16T04:37:57.421Z,46.53
2023-05-16T04:40:25.393Z,46.61
2023-05-16T04:42:54.515Z,46.45
2023-05-16T04:45:21.812Z,46.75
2023-05-16T04:47:49.128Z,46.48
2023-05-16T04:50:18.256Z,46.45
2023-05-16T04:52:45.573Z,46.35
2023-05-16T04:55:12.839Z,46.57
2023-05-16T04:57:40.131Z,46.57
2023-05-16T05:00:10.213Z,46.62
2023-05-16T05:02:38.118Z,46.43
2023-05-16T05:05:06.803Z,46.67
2023-05-16T05:07:34.634Z,46.55
2023-05-16T05:10:01.943Z,46.60
2023-05-16T05:12:29.201Z,46.53
2023-05-16T05:14:56.469Z,46.35
2023-05-16T05:17:24.035Z,46.71
2023-05-16T05:19:51.292Z,46.64
2023-05-16T05:22:18.498Z,47.24
2023-05-16T05:24:46.010Z,46.84
2023-05-16T05:27:13.579Z,47.64
2023-05-16T05:29:41.184Z,49.42
2023-05-16T05:32:08.680Z,49.55
2023-05-16T05:34:36.369Z,50.84
2023-05-16T05:37:03.777Z,52.43
2023-05-16T05:39:31.121Z,51.26
2023-05-16T05:41:58.754Z,50.70
2023-05-16T05:44:26.094Z,50.59
2023-05-16T05:46:53.523Z,50.14
2023-05-16T05:49:21.156Z,50.53
2023-05-16T05:51:51.833Z,50.40
2023-05-16T05:54:19.874Z,49.81
2023-05-16T05:56:47.141Z,50.14
2023-05-16T05:59:14.335Z,50.48
2023-05-16T06:01:42.301Z,50.81
2023-05-16T06:04:09.718Z,50.32
2023-05-16T06:06:37.640Z,50.16
2023-05-16T06:09:04.833Z,50.32
2023-05-16T06:11:32.269Z,50.14
2023-05-16T06:13:59.488Z,50.03
2023-05-16T06:16:26.935Z,50.03
2023-05-16T06:18:54.497Z,50.51
2023-05-16T06:21:21.899Z,49.72
2023-05-16T06:23:49.259Z,49.70
2023-05-16T06:26:16.460Z,48.88
2023-05-16T06:28:44.079Z,48.50
2023-05-16T06:31:11.779Z,48.46
2023-05-16T06:33:39.238Z,48.34
2023-05-16T06:36:06.831Z,48.25
2023-05-16T06:38:34.017Z,48.21
2023-05-16T06:41:01.441Z,48.38
2023-05-16T06:43:28.721Z,48.58
2023-05-16T06:45:56.542Z,48.14
2023-05-16T06:48:24.267Z,48.29
2023-05-16T06:50:54.329Z,48.79
2023-05-16T06:53:21.621Z,48.30
2023-05-16T06:55:49.367Z,48.58
2023-05-16T06:58:16.631Z,48.46
2023-05-16T07:00:44.174Z,48.42
2023-05-16T07:03:11.683Z,48.51
2023-05-16T07:05:38.989Z,48.01
2023-05-16T07:08:07.931Z,48.16
2023-05-16T07:10:35.496Z,48.25
2023-05-16T07:13:02.802Z,48.09
2023-05-16T07:15:30.324Z,49.20
2023-05-16T07:17:57.872Z,49.88
2023-05-16T07:20:25.264Z,50.54
2023-05-16T07:22:52.608Z,49.16
2023-05-16T07:25:19.882Z,48.69
2023-05-16T07:27:47.226Z,48.66
2023-05-16T07:30:14.953Z,49.02
2023-05-16T07:32:43.266Z,49.12
2023-05-16T07:35:11.114Z,50.16
2023-05-16T07:37:38.484Z,48.03
2023-05-16T07:40:06.348Z,47.26
2023-05-16T07:42:33.584Z,46.93
2023-05-16T07:45:02.167Z,46.71
2023-05-16T07:47:29.690Z,46.47
2023-05-16T07:49:57.131Z,46.02
2023-05-16T07:52:24.876Z,46.11
2023-05-16T07:54:52.222Z,45.79
2023-05-16T07:57:19.683Z,46.06
2023-05-16T07:59:47.173Z,46.30
2023-05-16T08:02:14.585Z,46.26
2023-05-16T08:04:42.028Z,46.11
2023-05-16T08:07:09.560Z,45.62
2023-05-16T08:09:36.961Z,45.39
2023-05-16T08:12:04.446Z,45.65
2023-05-16T08:14:33.044Z,45.83
2023-05-16T08:17:00.764Z,46.15
2023-05-16T08:19:29.476Z,45.98
2023-05-16T08:21:56.895Z,45.66
2023-05-16T08:24:24.749Z,45.13
2023-05-16T08:26:52.031Z,45.08
2023-05-16T08:29:19.597Z,45.14
2023-05-16T08:31:47.286Z,45.12
2023-05-16T08:34:14.594Z,45.14
2023-05-16T08:36:42.347Z,45.43
2023-05-16T08:39:11.582Z,45.98
2023-05-16T08:41:39.105Z,46.11
2023-05-16T08:44:07.696Z,45.71
2023-05-16T08:46:35.903Z,45.75
2023-05-16T08:49:07.733Z,46.03
2023-05-16T08:51:36.116Z,45.82
2023-05-16T08:54:15.558Z,46.36
2023-05-16T08:56:43.653Z,45.95
2023-05-16T08:59:14.964Z,46.47
2023-05-16T09:01:42.879Z,46.92
2023-05-16T09:04:10.545Z,47.73
2023-05-16T09:06:38.482Z,49.04
2023-05-16T09:09:08.145Z,49.95
2023-05-16T09:11:37.112Z,49.65
2023-05-16T09:14:05.710Z,50.39
2023-05-16T09:16:32.979Z,51.17
2023-05-16T09:19:01.945Z,51.64
2023-05-16T09:21:33.506Z,51.20
2023-05-16T09:24:08.871Z,51.09
2023-05-16T09:26:38.600Z,50.53
2023-05-16T09:29:12.897Z,51.19
2023-05-16T09:31:40.454Z,50.73
2023-05-16T09:34:14.060Z,49.23
2023-05-16T09:36:43.614Z,48.61
2023-05-16T09:39:12.287Z,48.53
2023-05-16T09:41:39.567Z,48.31
2023-05-16T09:44:07.546Z,48.10
2023-05-16T09:46:36.015Z,48.04
2023-05-16T09:49:03.911Z,48.17
2023-05-16T09:51:32.141Z,48.23
2023-05-16T09:54:00.617Z,48.81
2023-05-16T09:56:28.502Z,49.90
2023-05-16T09:58:55.946Z,48.77
2023-05-16T10:01:24.867Z,48.97
2023-05-16T10:03:52.221Z,49.14
2023-05-16T10:06:19.967Z,49.48
2023-05-16T10:08:47.722Z,49.35
2023-05-16T10:11:15.259Z,49.18
2023-05-16T10:13:42.866Z,48.52
2023-05-16T10:16:13.422Z,48.42
2023-05-16T10:18:41.398Z,48.26
2023-05-16T10:21:15.669Z,47.67
2023-05-16T10:23:43.860Z,48.51
2023-05-16T10:26:14.132Z,48.16
2023-05-16T10:28:42.047Z,47.64
2023-05-16T10:31:11.092Z,47.82
2023-05-16T10:33:39.192Z,47.85
2023-05-16T10:36:07.759Z,48.11
2023-05-16T10:38:35.123Z,47.04
2023-05-16T10:41:02.940Z,48.95
2023-05-16T10:43:31.181Z,48.85
2023-05-16T10:46:04.253Z,48.07
2023-05-16T10:48:36.667Z,46.70
2023-05-16T10:51:05.724Z,46.47
2023-05-16T10:53:33.985Z,46.25
2023-05-16T10:56:04.482Z,46.22
2023-05-16T10:58:39.907Z,46.92
2023-05-16T11:01:24.460Z,47.38
2023-05-16T11:04:00.550Z,47.69
2023-05-16T11:06:29.373Z,46.74
2023-05-16T11:09:13.339Z,46.54
2023-05-16T11:11:48.745Z,47.03
2023-05-16T11:14:26.313Z,46.72
2023-05-16T11:17:15.843Z,46.25
2023-05-16T11:19:50.870Z,46.21
2023-05-16T11:22:24.705Z,45.93
2023-05-16T11:24:53.394Z,45.78
2023-05-16T11:27:37.625Z,45.97
2023-05-16T11:30:14.450Z,46.18
2023-05-16T11:32:46.615Z,46.48
2023-05-16T11:35:18.362Z,47.00
2023-05-16T11:37:47.082Z,47.20
2023-05-16T11:40:15.707Z,47.17
2023-05-16T11:42:45.178Z,47.69
2023-05-16T11:45:16.427Z,47.51
2023-05-16T11:47:44.800Z,46.30
2023-05-16T11:50:16.990Z,47.63
2023-05-16T11:52:54.606Z,47.57
2023-05-16T11:55:41.488Z,47.42
2023-05-16T11:58:09.728Z,46.14
2023-05-16T12:00:37.068Z,46.00
2023-05-16T12:03:06.365Z,45.97
2023-05-16T12:05:35.036Z,45.95
2023-05-16T12:08:04.796Z,46.71
2023-05-16T12:10:34.591Z,46.25
2023-05-16T12:13:03.552Z,46.01
2023-05-16T12:15:31.085Z,46.03
2023-05-16T12:17:58.885Z,46.34
2023-05-16T12:20:27.580Z,46.30
2023-05-16T12:22:58.340Z,44.72
2023-05-16T12:25:32.463Z,44.74
2023-05-16T12:28:01.605Z,44.39
2023-05-16T12:30:29.769Z,44.00
2023-05-16T12:33:08.524Z,43.94
2023-05-16T12:35:38.134Z,43.58
2023-05-16T12:38:07.649Z,43.38
2023-05-16T12:40:38.153Z,41.50
2023-05-16T12:43:15.383Z,41.86
2023-05-16T12:45:43.383Z,42.34
2023-05-16T12:48:14.397Z,42.01
2023-05-16T12:50:42.422Z,42.10
2023-05-16T12:53:14.659Z,42.61
2023-05-16T12:55:42.896Z,42.90
2023-05-16T12:58:11.248Z,42.29
2023-05-16T13:00:39.209Z,42.85
2023-05-16T13:03:07.972Z,43.19
2023-05-16T13:05:36.176Z,42.85
2023-05-16T13:08:03.989Z,42.85
2023-05-16T13:10:31.337Z,43.02
2023-05-16T13:13:00.086Z,42.63
2023-05-16T13:15:28.240Z,42.13
2023-05-16T13:17:56.351Z,41.97
2023-05-16T13:20:23.644Z,41.90
2023-05-16T13:22:51.049Z,41.04
2023-05-16T13:25:18.377Z,40.85
2023-05-16T13:27:46.346Z,42.06
2023-05-16T13:30:13.788Z,42.00
2023-05-16T13:32:41.286Z,42.73
2023-05-16T13:35:10.331Z,42.92
2023-05-16T13:37:37.712Z,43.04
2023-05-16T13:40:05.609Z,43.73
2023-05-16T13:42:32.898Z,44.15
2023-05-16T13:45:00.402Z,43.89
2023-05-16T13:47:27.665Z,44.44
2023-05-16T13:49:55.000Z,44.46
2023-05-16T13:52:22.272Z,44.72
2023-05-16T13:54:49.538Z,44.46
2023-05-16T13:57:17.213Z,44.05
2023-05-16T14:02:15.165Z,42.88
2023-05-16T14:04:42.804Z,43.18
2023-05-16T14:07:10.085Z,42.12
2023-05-16T14:09:39.402Z,42.01
2023-05-16T14:12:07.971Z,44.20
2023-05-16T14:14:35.674Z,44.69
2023-05-16T14:17:03.943Z,45.46
2023-05-16T14:19:31.965Z,46.13
2023-05-16T14:21:59.344Z,46.01
2023-05-16T14:24:26.683Z,46.60
2023-05-16T14:26:58.307Z,47.51
2023-05-16T14:29:26.190Z,47.77
2023-05-16T14:31:53.770Z,48.38
2023-05-16T14:34:22.506Z,48.32
2023-05-16T14:36:50.907Z,48.45
2023-05-16T14:39:18.340Z,48.56
2023-05-16T14:41:46.516Z,48.39
2023-05-16T14:44:13.954Z,48.64
2023-05-16T14:46:41.385Z,48.67
2023-05-16T14:49:09.158Z,48.79
2023-05-16T14:51:39.591Z,48.83
2023-05-16T14:54:07.493Z,49.00
2023-05-16T14:56:34.817Z,49.39
2023-05-16T14:59:02.407Z,49.36
2023-05-16T15:01:29.747Z,49.28
2023-05-16T15:03:57.229Z,46.21
2023-05-16T15:06:25.916Z,46.11
2023-05-16T15:08:53.314Z,45.21
2023-05-16T15:11:21.729Z,43.82
2023-05-16T15:13:49.222Z,43.23
2023-05-16T15:16:16.859Z,42.43
2023-05-16T15:18:44.463Z,40.82
2023-05-16T15:21:11.774Z,42.98
2023-05-16T15:23:39.260Z,40.85
2023-05-16T15:26:06.744Z,42.08
2023-05-16T15:28:34.037Z,41.08
2023-05-16T15:31:01.456Z,40.17
2023-05-16T15:33:28.802Z,38.87
2023-05-16T15:35:56.065Z,37.19
2023-05-16T15:38:23.479Z,35.70
2023-05-16T15:41:01.041Z,34.78
2023-05-16T15:43:38.374Z,35.02
2023-05-16T15:46:08.789Z,35.67
2023-05-16T15:48:37.206Z,34.67
2023-05-16T15:51:04.892Z,34.16
2023-05-16T15:53:32.446Z,33.56
2023-05-16T15:55:59.726Z,33.80
2023-05-16T15:58:27.061Z,33.77
2023-05-16T16:00:55.259Z,33.18
2023-05-16T16:03:22.825Z,32.87
2023-05-16T16:05:51.545Z,33.29
2023-05-16T16:08:20.380Z,33.34
2023-05-16T16:10:47.735Z,32.91
2023-05-16T16:13:15.062Z,32.31
2023-05-16T16:15:42.452Z,32.65
2023-05-16T16:18:11.667Z,31.95
2023-05-16T16:20:39.374Z,31.78
2023-05-16T16:23:06.856Z,31.41
2023-05-16T16:25:34.096Z,31.13
2023-05-16T16:28:01.513Z,31.27
2023-05-16T16:30:28.981Z,31.28
2023-05-16T16:32:56.408Z,30.72
2023-05-16T16:35:26.191Z,30.58
2023-05-16T16:38:05.730Z,30.47
2023-05-16T16:40:40.406Z,30.56
2023-05-16T16:43:07.871Z,31.30
2023-05-16T16:45:35.385Z,31.64
2023-05-16T16:48:02.756Z,31.96
2023-05-16T16:50:31.135Z,31.80
2023-05-16T16:53:01.782Z,32.05
2023-05-16T16:55:29.691Z,32.11
2023-05-16T16:57:57.205Z,31.42
2023-05-16T17:00:24.557Z,31.72
2023-05-16T17:02:52.235Z,32.14
2023-05-16T17:05:19.734Z,32.11
2023-05-16T17:07:47.308Z,32.01
2023-05-16T17:10:16.727Z,31.70
2023-05-16T17:12:49.211Z,31.98
2023-05-16T17:15:17.583Z,32.34
2023-05-16T17:17:45.921Z,32.24
2023-05-16T17:20:13.723Z,32.69
2023-05-16T17:22:41.286Z,32.83
2023-05-16T17:25:09.769Z,32.74
2023-05-16T17:27:37.190Z,32.51
2023-05-16T17:30:04.859Z,32.52
2023-05-16T17:32:32.346Z,32.79
2023-05-16T17:35:03.682Z,32.51
2023-05-16T17:37:31.094Z,31.87
2023-05-16T17:39:58.686Z,32.65
2023-05-16T17:42:25.941Z,32.63
2023-05-16T17:44:53.630Z,32.87
2023-05-16T17:47:20.996Z,33.25
2023-05-16T17:49:48.437Z,33.15
2023-05-16T17:52:15.786Z,32.94
2023-05-16T17:54:43.587Z,32.77
2023-05-16T17:57:10.985Z,32.84
2023-05-16T17:59:38.561Z,33.18
2023-05-16T18:02:09.804Z,33.56
2023-05-16T18:04:37.165Z,34.41
2023-05-16T18:07:05.267Z,34.19
2023-05-16T18:09:32.889Z,34.09
2023-05-16T18:12:01.410Z,34.47
2023-05-16T18:14:29.050Z,34.53
2023-05-16T18:16:56.469Z,35.22
2023-05-16T18:19:23.989Z,35.71
2023-05-16T18:21:52.972Z,36.26
2023-05-16T18:24:20.350Z,37.28
2023-05-16T18:26:48.516Z,37.10
2023-05-16T18:29:15.920Z,37.20
2023-05-16T18:31:43.626Z,36.35
2023-05-16T18:34:12.092Z,34.64
2023-05-16T18:36:39.609Z,33.83
2023-05-16T18:39:07.164Z,33.95
2023-05-16T18:41:34.590Z,33.45
2023-05-16T18:44:02.463Z,33.45
2023-05-16T18:46:29.855Z,34.37
2023-05-16T18:49:00.304Z,33.57
2023-05-16T18:51:27.655Z,33.45
2023-05-16T18:53:55.102Z,33.57
2023-05-16T18:56:22.649Z,34.28
2023-05-16T18:58:50.043Z,34.88
2023-05-16T19:01:17.368Z,35.54
2023-05-16T19:03:45.185Z,35.95
2023-05-16T19:06:12.712Z,36.29
2023-05-16T19:08:47.563Z,36.33
2023-05-16T19:11:16.033Z,36.36
2023-05-16T19:13:43.928Z,36.63
2023-05-16T19:16:11.625Z,36.96
2023-05-16T19:18:39.221Z,36.84
2023-05-16T19:21:11.185Z,37.36
2023-05-16T19:23:40.706Z,36.53
2023-05-16T19:26:08.058Z,37.08
2023-05-16T19:28:35.495Z,37.24
2023-05-16T19:31:03.035Z,37.19
2023-05-16T19:33:30.695Z,37.70
2023-05-16T19:35:58.452Z,37.79
2023-05-16T19:38:26.359Z,37.86
2023-05-16T19:40:54.562Z,38.27
2023-05-16T19:43:22.243Z,38.34
2023-05-16T19:45:49.643Z,38.08
2023-05-16T19:48:18.486Z,38.40
2023-05-16T19:50:46.152Z,38.44
2023-05-16T19:53:13.598Z,38.28
2023-05-16T19:55:41.110Z,38.40
2023-05-16T19:58:08.696Z,38.37
2023-05-16T20:00:36.257Z,38.19
2023-05-16T20:03:03.954Z,38.20
2023-05-16T20:05:31.572Z,38.09
2023-05-16T20:07:59.395Z,37.93
2023-05-16T20:10:26.701Z,38.26
2023-05-16T20:12:54.088Z,37.72
2023-05-16T20:15:22.739Z,37.81
2023-05-16T20:17:50.288Z,35.60
2023-05-16T20:20:17.705Z,37.21
2023-05-16T20:22:45.143Z,37.51
2023-05-16T20:25:12.796Z,37.94
2023-05-16T20:27:41.151Z,38.05
2023-05-16T20:30:09.773Z,38.00
2023-05-16T20:32:37.233Z,38.25
2023-05-16T20:35:09.130Z,38.30
2023-05-16T20:37:36.870Z,38.43
2023-05-16T20:40:06.111Z,38.66
2023-05-16T20:42:33.501Z,38.48
2023-05-16T20:45:01.630Z,38.81
2023-05-16T20:47:29.251Z,39.08
2023-05-16T20:49:56.729Z,39.16
2023-05-16T20:52:24.030Z,39.18
2023-05-16T20:54:51.466Z,39.39
2023-05-16T20:57:18.829Z,39.33
2023-05-16T20:59:46.164Z,39.47
2023-05-16T21:02:13.405Z,38.99
2023-05-16T21:04:40.758Z,39.40
2023-05-16T21:07:08.718Z,39.50
2023-05-16T21:09:37.798Z,39.67
2023-05-16T21:12:05.384Z,39.80
2023-05-16T21:14:32.849Z,40.37
2023-05-16T21:17:00.324Z,40.02
2023-05-16T21:19:30.179Z,40.50
2023-05-16T21:21:57.475Z,39.64
2023-05-16T21:24:24.873Z,39.95
2023-05-16T21:26:52.355Z,40.03
2023-05-16T21:29:19.589Z,39.59
2023-05-16T21:31:46.821Z,39.52
2023-05-16T21:34:14.091Z,39.38
2023-05-16T21:36:41.535Z,39.27
2023-05-16T21:39:09.724Z,38.41
2023-05-16T21:41:36.962Z,38.12
2023-05-16T21:44:04.303Z,37.76
2023-05-16T21:46:31.677Z,38.16
2023-05-16T21:48:58.965Z,38.43
2023-05-16T21:51:26.286Z,38.35
2023-05-16T21:53:53.742Z,38.72
2023-05-16T21:56:21.249Z,38.12
2023-05-16T21:58:48.487Z,38.04
2023-05-16T22:01:16.606Z,38.18
2023-05-16T22:03:43.972Z,37.94
2023-05-16T22:06:11.376Z,37.63
2023-05-16T22:08:38.862Z,38.44
2023-05-16T22:11:06.141Z,39.55
2023-05-16T22:13:33.481Z,39.46
2023-05-16T22:16:04.703Z,39.46
2023-05-16T22:18:33.516Z,40.32
2023-05-16T22:21:01.279Z,40.86
2023-05-16T22:23:28.646Z,41.33
2023-05-16T22:25:56.126Z,41.61
2023-05-16T22:28:23.415Z,41.68
2023-05-16T22:30:51.250Z,41.90
2023-05-16T22:33:19.008Z,42.04
2023-05-16T22:35:46.426Z,41.68
2023-05-16T22:38:13.712Z,41.51
2023-05-16T22:40:44.465Z,41.22
2023-05-16T22:43:11.668Z,41.39
2023-05-16T22:45:39.020Z,41.04
2023-05-16T22:48:06.461Z,41.20
2023-05-16T22:50:34.058Z,40.92
2023-05-16T22:53:01.345Z,41.04
2023-05-16T22:55:29.594Z,40.65
2023-05-16T22:57:59.737Z,40.95
2023-05-16T23:00:27.230Z,40.83
2023-05-16T23:02:54.893Z,40.63
2023-05-16T23:05:22.167Z,40.51
2023-05-16T23:07:49.462Z,40.50
2023-05-16T23:10:17.044Z,40.66
2023-05-16T23:12:44.429Z,40.44
2023-05-16T23:15:11.953Z,40.47
2023-05-16T23:17:39.459Z,40.53
2023-05-16T23:20:07.564Z,40.41
2023-05-16T23:22:34.813Z,40.20
2023-05-16T23:25:02.159Z,40.27
2023-05-16T23:27:29.403Z,40.51
2023-05-16T23:29:56.629Z,40.35
2023-05-16T23:32:23.973Z,40.28
2023-05-16T23:34:51.284Z,40.29
2023-05-16T23:37:18.525Z,40.21
2023-05-16T23:39:45.762Z,40.21
2023-05-16T23:42:13.104Z,40.17
2023-05-16T23:44:41.829Z,40.57
2023-05-16T23:47:09.315Z,40.38
2023-05-16T23:49:36.554Z,40.54
2023-05-16T23:52:05.856Z,40.62
2023-05-16T23:54:36.089Z,40.42
2023-05-16T23:57:03.301Z,40.32
2023-05-16T23:59:30.512Z,40.51
